sensor_id;sensor_type;location;lat;lon;timestamp;temperature;humidity
43995;DHT22;51687;52.160;5.298;2023-07-29T00:02:13;21.90;68.30
43995;DHT22;51687;52.160;5.298;2023-07-29T00:04:40;21.90;68.50
43995;DHT22;51687;52.160;5.298;2023-07-29T00:07:07;21.90;68.40
43995;DHT22;51687;52.160;5.298;2023-07-29T00:09:33;21.90;68.30
43995;DHT22;51687;52.160;5.298;2023-07-29T00:12:00;21.90;68.40
43995;DHT22;51687;52.160;5.298;2023-07-29T00:14:27;21.90;68.40
43995;DHT22;51687;52.160;5.298;2023-07-29T00:16:53;21.90;68.50
43995;DHT22;51687;52.160;5.298;2023-07-29T00:19:20;21.80;68.40
43995;DHT22;51687;52.160;5.298;2023-07-29T00:21:50;21.80;68.50
43995;DHT22;51687;52.160;5.298;2023-07-29T00:24:16;21.80;68.40
43995;DHT22;51687;52.160;5.298;2023-07-29T00:26:43;21.80;68.40
43995;DHT22;51687;52.160;5.298;2023-07-29T00:29:10;21.80;68.70
43995;DHT22;51687;52.160;5.298;2023-07-29T00:31:36;21.80;68.50
43995;DHT22;51687;52.160;5.298;2023-07-29T00:34:03;21.80;68.60
43995;DHT22;51687;52.160;5.298;2023-07-29T00:36:30;21.80;68.70
43995;DHT22;51687;52.160;5.298;2023-07-29T00:38:57;21.80;68.40
43995;DHT22;51687;52.160;5.298;2023-07-29T00:41:25;21.70;68.20
43995;DHT22;51687;52.160;5.298;2023-07-29T00:43:52;21.70;68.30
43995;DHT22;51687;52.160;5.298;2023-07-29T00:46:20;21.70;68.40
43995;DHT22;51687;52.160;5.298;2023-07-29T00:48:47;21.70;68.50
43995;DHT22;51687;52.160;5.298;2023-07-29T00:51:14;21.70;68.80
43995;DHT22;51687;52.160;5.298;2023-07-29T00:53:41;21.70;68.80
43995;DHT22;51687;52.160;5.298;2023-07-29T00:56:08;21.70;69.20
43995;DHT22;51687;52.160;5.298;2023-07-29T00:58:35;21.70;69.30
43995;DHT22;51687;52.160;5.298;2023-07-29T01:01:01;21.70;69.20
43995;DHT22;51687;52.160;5.298;2023-07-29T01:03:28;21.70;69.30
43995;DHT22;51687;52.160;5.298;2023-07-29T01:06:10;21.70;69.30
43995;DHT22;51687;52.160;5.298;2023-07-29T01:11:36;21.70;69.20
43995;DHT22;51687;52.160;5.298;2023-07-29T01:14:29;21.60;69.20
43995;DHT22;51687;52.160;5.298;2023-07-29T01:17:03;21.60;69.30
43995;DHT22;51687;52.160;5.298;2023-07-29T01:19:48;21.60;69.40
43995;DHT22;51687;52.160;5.298;2023-07-29T01:22:18;21.60;69.50
43995;DHT22;51687;52.160;5.298;2023-07-29T01:24:45;21.60;69.30
43995;DHT22;51687;52.160;5.298;2023-07-29T01:27:12;21.60;69.40
43995;DHT22;51687;52.160;5.298;2023-07-29T01:29:39;21.60;69.70
43995;DHT22;51687;52.160;5.298;2023-07-29T01:32:17;21.60;69.70
43995;DHT22;51687;52.160;5.298;2023-07-29T01:34:51;21.50;69.80
43995;DHT22;51687;52.160;5.298;2023-07-29T01:37:26;21.60;69.80
43995;DHT22;51687;52.160;5.298;2023-07-29T01:39:57;21.50;69.70
43995;DHT22;51687;52.160;5.298;2023-07-29T01:42:25;21.50;69.80
43995;DHT22;51687;52.160;5.298;2023-07-29T01:44:56;21.50;69.90
43995;DHT22;51687;52.160;5.298;2023-07-29T01:47:23;21.50;69.80
43995;DHT22;51687;52.160;5.298;2023-07-29T01:49:49;21.50;69.70
43995;DHT22;51687;52.160;5.298;2023-07-29T01:52:16;21.50;69.70
43995;DHT22;51687;52.160;5.298;2023-07-29T01:54:43;21.50;69.70
43995;DHT22;51687;52.160;5.298;2023-07-29T01:57:10;21.50;69.80
43995;DHT22;51687;52.160;5.298;2023-07-29T01:59:36;21.50;69.80
43995;DHT22;51687;52.160;5.298;2023-07-29T02:02:03;21.50;69.70
43995;DHT22;51687;52.160;5.298;2023-07-29T02:04:30;21.50;69.80
43995;DHT22;51687;52.160;5.298;2023-07-29T02:06:57;21.50;69.80
43995;DHT22;51687;52.160;5.298;2023-07-29T02:09:24;21.50;69.80
43995;DHT22;51687;52.160;5.298;2023-07-29T02:11:52;21.40;69.90
43995;DHT22;51687;52.160;5.298;2023-07-29T02:14:19;21.40;70.00
43995;DHT22;51687;52.160;5.298;2023-07-29T02:16:45;21.40;70.20
43995;DHT22;51687;52.160;5.298;2023-07-29T02:19:12;21.40;70.80
43995;DHT22;51687;52.160;5.298;2023-07-29T02:21:39;21.40;70.30
43995;DHT22;51687;52.160;5.298;2023-07-29T02:24:06;21.40;70.30
43995;DHT22;51687;52.160;5.298;2023-07-29T02:26:32;21.40;70.20
43995;DHT22;51687;52.160;5.298;2023-07-29T02:29:00;21.40;70.30
43995;DHT22;51687;52.160;5.298;2023-07-29T02:31:26;21.30;70.20
43995;DHT22;51687;52.160;5.298;2023-07-29T02:33:53;21.30;70.20
43995;DHT22;51687;52.160;5.298;2023-07-29T02:36:20;21.30;70.50
43995;DHT22;51687;52.160;5.298;2023-07-29T02:38:47;21.30;70.70
43995;DHT22;51687;52.160;5.298;2023-07-29T02:41:14;21.30;70.80
43995;DHT22;51687;52.160;5.298;2023-07-29T02:43:43;21.30;71.00
43995;DHT22;51687;52.160;5.298;2023-07-29T02:46:10;21.30;71.10
43995;DHT22;51687;52.160;5.298;2023-07-29T02:48:37;21.30;71.00
43995;DHT22;51687;52.160;5.298;2023-07-29T02:51:03;21.20;71.10
43995;DHT22;51687;52.160;5.298;2023-07-29T02:53:30;21.20;71.20
43995;DHT22;51687;52.160;5.298;2023-07-29T02:55:58;21.20;71.30
43995;DHT22;51687;52.160;5.298;2023-07-29T02:58:25;21.20;71.20
43995;DHT22;51687;52.160;5.298;2023-07-29T03:00:52;21.20;71.30
43995;DHT22;51687;52.160;5.298;2023-07-29T03:03:19;21.20;71.30
43995;DHT22;51687;52.160;5.298;2023-07-29T03:05:46;21.20;71.30
43995;DHT22;51687;52.160;5.298;2023-07-29T03:08:13;21.20;71.20
43995;DHT22;51687;52.160;5.298;2023-07-29T03:10:40;21.10;71.30
43995;DHT22;51687;52.160;5.298;2023-07-29T03:13:08;21.10;71.20
43995;DHT22;51687;52.160;5.298;2023-07-29T03:15:35;21.10;71.10
43995;DHT22;51687;52.160;5.298;2023-07-29T03:18:02;21.10;71.10
43995;DHT22;51687;52.160;5.298;2023-07-29T03:20:28;21.10;71.20
43995;DHT22;51687;52.160;5.298;2023-07-29T03:22:55;21.10;71.10
43995;DHT22;51687;52.160;5.298;2023-07-29T03:25:22;21.10;71.10
43995;DHT22;51687;52.160;5.298;2023-07-29T03:27:49;21.10;71.10
43995;DHT22;51687;52.160;5.298;2023-07-29T04:04:41;21.00;70.80
43995;DHT22;51687;52.160;5.298;2023-07-29T04:07:09;20.90;70.30
43995;DHT22;51687;52.160;5.298;2023-07-29T04:09:35;20.90;70.10
43995;DHT22;51687;52.160;5.298;2023-07-29T04:12:02;20.90;70.00
43995;DHT22;51687;52.160;5.298;2023-07-29T04:14:29;20.90;70.10
43995;DHT22;51687;52.160;5.298;2023-07-29T04:16:56;20.90;69.90
43995;DHT22;51687;52.160;5.298;2023-07-29T04:19:23;20.90;69.70
43995;DHT22;51687;52.160;5.298;2023-07-29T04:21:49;20.90;69.60
43995;DHT22;51687;52.160;5.298;2023-07-29T04:24:17;20.90;69.90
43995;DHT22;51687;52.160;5.298;2023-07-29T04:26:46;20.90;69.70
43995;DHT22;51687;52.160;5.298;2023-07-29T04:29:13;20.90;69.40
43995;DHT22;51687;52.160;5.298;2023-07-29T04:31:39;20.80;69.40
43995;DHT22;51687;52.160;5.298;2023-07-29T04:34:06;20.80;69.50
43995;DHT22;51687;52.160;5.298;2023-07-29T04:36:33;20.90;69.50
43995;DHT22;51687;52.160;5.298;2023-07-29T04:39:00;20.80;69.40
43995;DHT22;51687;52.160;5.298;2023-07-29T04:41:27;20.80;69.30
43995;DHT22;51687;52.160;5.298;2023-07-29T04:43:54;20.80;69.30
43995;DHT22;51687;52.160;5.298;2023-07-29T04:46:20;20.80;69.10
43995;DHT22;51687;52.160;5.298;2023-07-29T04:48:47;20.80;69.30
43995;DHT22;51687;52.160;5.298;2023-07-29T04:51:14;20.80;69.30
43995;DHT22;51687;52.160;5.298;2023-07-29T04:53:41;20.80;69.20
43995;DHT22;51687;52.160;5.298;2023-07-29T04:56:07;20.80;69.10
43995;DHT22;51687;52.160;5.298;2023-07-29T04:58:34;20.80;69.10
43995;DHT22;51687;52.160;5.298;2023-07-29T05:01:02;20.80;69.20
43995;DHT22;51687;52.160;5.298;2023-07-29T05:03:29;20.80;69.20
43995;DHT22;51687;52.160;5.298;2023-07-29T05:05:57;20.80;69.30
43995;DHT22;51687;52.160;5.298;2023-07-29T05:08:26;20.70;69.20
43995;DHT22;51687;52.160;5.298;2023-07-29T05:10:53;20.70;69.20
43995;DHT22;51687;52.160;5.298;2023-07-29T05:13:21;20.70;69.30
43995;DHT22;51687;52.160;5.298;2023-07-29T05:15:49;20.70;69.50
43995;DHT22;51687;52.160;5.298;2023-07-29T05:18:16;20.70;69.60
43995;DHT22;51687;52.160;5.298;2023-07-29T05:20:43;20.70;69.70
43995;DHT22;51687;52.160;5.298;2023-07-29T05:23:10;20.60;70.40
43995;DHT22;51687;52.160;5.298;2023-07-29T05:25:36;20.60;69.90
43995;DHT22;51687;52.160;5.298;2023-07-29T05:28:03;20.60;70.00
43995;DHT22;51687;52.160;5.298;2023-07-29T05:30:31;20.60;70.00
43995;DHT22;51687;52.160;5.298;2023-07-29T05:33:00;20.60;70.20
43995;DHT22;51687;52.160;5.298;2023-07-29T05:35:27;20.60;70.30
43995;DHT22;51687;52.160;5.298;2023-07-29T05:37:54;20.60;70.40
43995;DHT22;51687;52.160;5.298;2023-07-29T05:40:20;20.60;70.40
43995;DHT22;51687;52.160;5.298;2023-07-29T05:42:47;20.60;70.50
43995;DHT22;51687;52.160;5.298;2023-07-29T05:45:14;20.50;70.50
43995;DHT22;51687;52.160;5.298;2023-07-29T05:47:41;20.50;70.80
43995;DHT22;51687;52.160;5.298;2023-07-29T05:50:08;20.50;71.00
43995;DHT22;51687;52.160;5.298;2023-07-29T05:52:36;20.50;71.20
43995;DHT22;51687;52.160;5.298;2023-07-29T05:55:03;20.50;71.30
43995;DHT22;51687;52.160;5.298;2023-07-29T05:57:30;20.50;71.30
43995;DHT22;51687;52.160;5.298;2023-07-29T05:59:57;20.60;71.30
43995;DHT22;51687;52.160;5.298;2023-07-29T06:02:23;20.60;71.30
43995;DHT22;51687;52.160;5.298;2023-07-29T06:04:50;20.60;71.30
43995;DHT22;51687;52.160;5.298;2023-07-29T06:07:17;20.60;71.90
43995;DHT22;51687;52.160;5.298;2023-07-29T06:09:43;20.60;71.70
43995;DHT22;51687;52.160;5.298;2023-07-29T06:12:10;20.60;72.00
43995;DHT22;51687;52.160;5.298;2023-07-29T06:14:37;20.60;71.90
43995;DHT22;51687;52.160;5.298;2023-07-29T06:17:04;20.60;72.00
43995;DHT22;51687;52.160;5.298;2023-07-29T06:19:33;20.60;71.90
43995;DHT22;51687;52.160;5.298;2023-07-29T06:22:00;20.60;71.80
43995;DHT22;51687;52.160;5.298;2023-07-29T06:24:28;20.60;72.10
43995;DHT22;51687;52.160;5.298;2023-07-29T06:26:55;20.60;72.00
43995;DHT22;51687;52.160;5.298;2023-07-29T06:29:21;20.60;72.20
43995;DHT22;51687;52.160;5.298;2023-07-29T06:31:48;20.70;72.20
43995;DHT22;51687;52.160;5.298;2023-07-29T06:34:15;20.60;72.20
43995;DHT22;51687;52.160;5.298;2023-07-29T06:36:41;20.70;72.40
43995;DHT22;51687;52.160;5.298;2023-07-29T06:39:08;20.70;72.30
43995;DHT22;51687;52.160;5.298;2023-07-29T06:41:35;20.70;72.40
43995;DHT22;51687;52.160;5.298;2023-07-29T06:44:02;20.70;72.80
43995;DHT22;51687;52.160;5.298;2023-07-29T06:46:28;20.70;72.80
43995;DHT22;51687;52.160;5.298;2023-07-29T06:48:55;20.70;72.80
43995;DHT22;51687;52.160;5.298;2023-07-29T06:51:22;20.70;73.00
43995;DHT22;51687;52.160;5.298;2023-07-29T06:53:49;20.70;72.90
43995;DHT22;51687;52.160;5.298;2023-07-29T06:56:16;20.70;72.90
43995;DHT22;51687;52.160;5.298;2023-07-29T06:58:43;20.70;73.10
43995;DHT22;51687;52.160;5.298;2023-07-29T07:01:09;20.70;73.10
43995;DHT22;51687;52.160;5.298;2023-07-29T07:03:36;20.70;73.10
43995;DHT22;51687;52.160;5.298;2023-07-29T07:06:03;20.80;73.10
43995;DHT22;51687;52.160;5.298;2023-07-29T07:08:31;20.80;73.10
43995;DHT22;51687;52.160;5.298;2023-07-29T07:10:58;20.80;73.40
43995;DHT22;51687;52.160;5.298;2023-07-29T07:13:24;20.80;73.60
43995;DHT22;51687;52.160;5.298;2023-07-29T07:15:54;20.80;73.50
43995;DHT22;51687;52.160;5.298;2023-07-29T07:18:21;20.80;73.40
43995;DHT22;51687;52.160;5.298;2023-07-29T07:20:51;20.80;73.40
43995;DHT22;51687;52.160;5.298;2023-07-29T07:23:18;20.80;73.20
43995;DHT22;51687;52.160;5.298;2023-07-29T07:25:45;20.80;73.20
43995;DHT22;51687;52.160;5.298;2023-07-29T07:28:12;20.80;73.10
43995;DHT22;51687;52.160;5.298;2023-07-29T07:30:41;20.80;73.20
43995;DHT22;51687;52.160;5.298;2023-07-29T07:33:08;20.80;73.10
43995;DHT22;51687;52.160;5.298;2023-07-29T07:35:36;20.80;73.20
43995;DHT22;51687;52.160;5.298;2023-07-29T07:38:02;20.90;73.50
43995;DHT22;51687;52.160;5.298;2023-07-29T07:40:31;20.90;73.40
43995;DHT22;51687;52.160;5.298;2023-07-29T07:42:57;20.90;73.50
43995;DHT22;51687;52.160;5.298;2023-07-29T07:45:24;20.90;73.50
43995;DHT22;51687;52.160;5.298;2023-07-29T07:50:20;21.00;73.70
43995;DHT22;51687;52.160;5.298;2023-07-29T07:52:47;21.00;73.70
43995;DHT22;51687;52.160;5.298;2023-07-29T07:55:15;21.00;73.60
43995;DHT22;51687;52.160;5.298;2023-07-29T07:57:41;21.00;73.90
43995;DHT22;51687;52.160;5.298;2023-07-29T08:00:09;21.00;74.00
43995;DHT22;51687;52.160;5.298;2023-07-29T08:02:36;21.00;73.60
43995;DHT22;51687;52.160;5.298;2023-07-29T08:05:03;21.00;73.60
43995;DHT22;51687;52.160;5.298;2023-07-29T08:07:30;21.00;73.80
43995;DHT22;51687;52.160;5.298;2023-07-29T08:09:57;21.00;74.00
43995;DHT22;51687;52.160;5.298;2023-07-29T08:12:23;21.10;73.80
43995;DHT22;51687;52.160;5.298;2023-07-29T08:14:50;21.10;73.20
43995;DHT22;51687;52.160;5.298;2023-07-29T08:17:17;21.10;72.90
43995;DHT22;51687;52.160;5.298;2023-07-29T08:19:44;21.10;73.10
43995;DHT22;51687;52.160;5.298;2023-07-29T08:22:10;21.10;73.20
43995;DHT22;51687;52.160;5.298;2023-07-29T08:24:37;21.10;73.10
43995;DHT22;51687;52.160;5.298;2023-07-29T08:27:04;21.10;72.80
43995;DHT22;51687;52.160;5.298;2023-07-29T08:29:31;21.10;72.90
43995;DHT22;51687;52.160;5.298;2023-07-29T08:31:58;21.20;73.10
43995;DHT22;51687;52.160;5.298;2023-07-29T08:34:24;21.20;73.10
43995;DHT22;51687;52.160;5.298;2023-07-29T08:36:51;21.20;73.10
43995;DHT22;51687;52.160;5.298;2023-07-29T08:39:18;21.20;73.30
43995;DHT22;51687;52.160;5.298;2023-07-29T08:42:04;21.20;72.90
43995;DHT22;51687;52.160;5.298;2023-07-29T08:44:42;21.20;72.80
43995;DHT22;51687;52.160;5.298;2023-07-29T08:47:09;21.20;72.70
43995;DHT22;51687;52.160;5.298;2023-07-29T08:49:37;21.30;72.80
43995;DHT22;51687;52.160;5.298;2023-07-29T08:52:05;21.20;72.40
43995;DHT22;51687;52.160;5.298;2023-07-29T08:54:33;21.20;72.80
43995;DHT22;51687;52.160;5.298;2023-07-29T08:57:00;21.30;72.50
43995;DHT22;51687;52.160;5.298;2023-07-29T08:59:28;21.20;72.40
43995;DHT22;51687;52.160;5.298;2023-07-29T09:01:56;21.20;72.40
43995;DHT22;51687;52.160;5.298;2023-07-29T09:04:24;21.20;72.50
43995;DHT22;51687;52.160;5.298;2023-07-29T09:06:51;21.20;72.30
43995;DHT22;51687;52.160;5.298;2023-07-29T09:09:20;21.30;72.60
43995;DHT22;51687;52.160;5.298;2023-07-29T09:11:47;21.20;72.50
43995;DHT22;51687;52.160;5.298;2023-07-29T09:14:14;21.20;72.80
43995;DHT22;51687;52.160;5.298;2023-07-29T09:16:41;21.30;73.30
43995;DHT22;51687;52.160;5.298;2023-07-29T09:19:08;21.20;73.70
43995;DHT22;51687;52.160;5.298;2023-07-29T09:21:39;21.30;73.20
43995;DHT22;51687;52.160;5.298;2023-07-29T09:24:06;21.30;72.90
43995;DHT22;51687;52.160;5.298;2023-07-29T09:26:34;21.30;72.50
43995;DHT22;51687;52.160;5.298;2023-07-29T09:29:02;21.30;72.50
43995;DHT22;51687;52.160;5.298;2023-07-29T09:31:31;21.30;72.20
43995;DHT22;51687;52.160;5.298;2023-07-29T09:34:00;21.40;71.80
43995;DHT22;51687;52.160;5.298;2023-07-29T09:36:29;21.40;72.10
43995;DHT22;51687;52.160;5.298;2023-07-29T09:38:57;21.30;71.40
43995;DHT22;51687;52.160;5.298;2023-07-29T09:41:28;21.40;71.70
43995;DHT22;51687;52.160;5.298;2023-07-29T09:43:56;21.40;71.70
43995;DHT22;51687;52.160;5.298;2023-07-29T09:46:24;21.40;71.30
43995;DHT22;51687;52.160;5.298;2023-07-29T09:48:54;21.40;71.30
43995;DHT22;51687;52.160;5.298;2023-07-29T09:51:24;21.40;71.10
43995;DHT22;51687;52.160;5.298;2023-07-29T09:53:51;21.50;71.70
43995;DHT22;51687;52.160;5.298;2023-07-29T09:56:27;21.50;71.60
43995;DHT22;51687;52.160;5.298;2023-07-29T09:58:56;21.50;71.70
43995;DHT22;51687;52.160;5.298;2023-07-29T10:01:24;21.50;72.00
43995;DHT22;51687;52.160;5.298;2023-07-29T10:03:51;21.50;72.20
43995;DHT22;51687;52.160;5.298;2023-07-29T10:06:19;21.50;72.60
43995;DHT22;51687;52.160;5.298;2023-07-29T10:08:47;21.50;73.00
43995;DHT22;51687;52.160;5.298;2023-07-29T10:11:15;21.50;73.20
43995;DHT22;51687;52.160;5.298;2023-07-29T10:13:43;21.60;73.00
43995;DHT22;51687;52.160;5.298;2023-07-29T10:16:32;21.60;72.40
43995;DHT22;51687;52.160;5.298;2023-07-29T10:19:01;21.60;72.50
43995;DHT22;51687;52.160;5.298;2023-07-29T10:21:32;21.60;71.60
43995;DHT22;51687;52.160;5.298;2023-07-29T10:24:01;21.70;71.80
43995;DHT22;51687;52.160;5.298;2023-07-29T10:26:32;21.70;71.30
43995;DHT22;51687;52.160;5.298;2023-07-29T10:29:04;21.70;71.40
43995;DHT22;51687;52.160;5.298;2023-07-29T10:31:35;21.70;71.10
43995;DHT22;51687;52.160;5.298;2023-07-29T10:34:03;21.70;71.40
43995;DHT22;51687;52.160;5.298;2023-07-29T10:36:31;21.70;71.90
43995;DHT22;51687;52.160;5.298;2023-07-29T10:38:58;21.70;72.30
43995;DHT22;51687;52.160;5.298;2023-07-29T10:41:54;21.70;72.40
43995;DHT22;51687;52.160;5.298;2023-07-29T10:44:49;21.70;72.30
43995;DHT22;51687;52.160;5.298;2023-07-29T10:47:35;21.70;72.30
43995;DHT22;51687;52.160;5.298;2023-07-29T10:50:02;21.70;72.70
43995;DHT22;51687;52.160;5.298;2023-07-29T10:55:02;21.80;72.90
43995;DHT22;51687;52.160;5.298;2023-07-29T10:57:34;21.80;73.30
43995;DHT22;51687;52.160;5.298;2023-07-29T11:00:03;21.80;74.40
43995;DHT22;51687;52.160;5.298;2023-07-29T11:15:21;21.90;75.50
43995;DHT22;51687;52.160;5.298;2023-07-29T11:20:27;21.80;75.20
43995;DHT22;51687;52.160;5.298;2023-07-29T11:22:56;21.80;74.80
43995;DHT22;51687;52.160;5.298;2023-07-29T11:25:23;21.80;74.50
43995;DHT22;51687;52.160;5.298;2023-07-29T11:27:56;21.70;74.30
43995;DHT22;51687;52.160;5.298;2023-07-29T11:30:24;21.70;75.00
43995;DHT22;51687;52.160;5.298;2023-07-29T11:32:58;21.70;75.00
43995;DHT22;51687;52.160;5.298;2023-07-29T11:35:26;21.70;74.90
43995;DHT22;51687;52.160;5.298;2023-07-29T11:37:54;21.70;74.80
43995;DHT22;51687;52.160;5.298;2023-07-29T11:40:23;21.70;74.90
43995;DHT22;51687;52.160;5.298;2023-07-29T11:42:51;21.70;74.50
43995;DHT22;51687;52.160;5.298;2023-07-29T11:45:19;21.70;74.20
43995;DHT22;51687;52.160;5.298;2023-07-29T11:47:46;21.70;75.10
43995;DHT22;51687;52.160;5.298;2023-07-29T11:50:14;21.70;74.40
43995;DHT22;51687;52.160;5.298;2023-07-29T11:52:43;21.70;75.20
43995;DHT22;51687;52.160;5.298;2023-07-29T11:55:12;21.70;75.40
43995;DHT22;51687;52.160;5.298;2023-07-29T11:57:39;21.70;74.90
43995;DHT22;51687;52.160;5.298;2023-07-29T12:00:08;21.70;75.70
43995;DHT22;51687;52.160;5.298;2023-07-29T12:02:38;21.70;75.40
43995;DHT22;51687;52.160;5.298;2023-07-29T12:05:07;21.80;76.10
43995;DHT22;51687;52.160;5.298;2023-07-29T12:07:35;21.80;77.40
43995;DHT22;51687;52.160;5.298;2023-07-29T12:10:03;21.80;77.70
43995;DHT22;51687;52.160;5.298;2023-07-29T12:12:30;21.80;78.20
43995;DHT22;51687;52.160;5.298;2023-07-29T12:14:57;21.80;77.60
43995;DHT22;51687;52.160;5.298;2023-07-29T12:17:24;21.80;76.70
43995;DHT22;51687;52.160;5.298;2023-07-29T12:19:54;21.90;77.00
43995;DHT22;51687;52.160;5.298;2023-07-29T12:22:21;21.90;77.00
43995;DHT22;51687;52.160;5.298;2023-07-29T12:24:51;21.90;75.90
43995;DHT22;51687;52.160;5.298;2023-07-29T12:27:21;21.90;74.90
43995;DHT22;51687;52.160;5.298;2023-07-29T12:29:51;21.90;74.40
43995;DHT22;51687;52.160;5.298;2023-07-29T12:32:18;21.90;74.50
43995;DHT22;51687;52.160;5.298;2023-07-29T12:34:45;21.90;75.40
43995;DHT22;51687;52.160;5.298;2023-07-29T12:37:12;21.90;75.40
43995;DHT22;51687;52.160;5.298;2023-07-29T12:39:42;22.00;75.10
43995;DHT22;51687;52.160;5.298;2023-07-29T12:42:09;22.00;74.10
43995;DHT22;51687;52.160;5.298;2023-07-29T12:44:37;22.00;75.40
43995;DHT22;51687;52.160;5.298;2023-07-29T12:47:05;22.00;74.60
43995;DHT22;51687;52.160;5.298;2023-07-29T12:49:32;22.00;74.50
43995;DHT22;51687;52.160;5.298;2023-07-29T12:51:59;22.00;74.10
43995;DHT22;51687;52.160;5.298;2023-07-29T12:54:27;22.00;74.50
43995;DHT22;51687;52.160;5.298;2023-07-29T12:56:53;22.00;74.80
43995;DHT22;51687;52.160;5.298;2023-07-29T12:59:20;22.10;74.50
43995;DHT22;51687;52.160;5.298;2023-07-29T13:06:41;22.10;73.50
43995;DHT22;51687;52.160;5.298;2023-07-29T13:09:08;22.10;72.40
43995;DHT22;51687;52.160;5.298;2023-07-29T13:11:35;22.10;72.10
43995;DHT22;51687;52.160;5.298;2023-07-29T13:14:02;22.20;72.00
43995;DHT22;51687;52.160;5.298;2023-07-29T13:16:29;22.10;73.60
43995;DHT22;51687;52.160;5.298;2023-07-29T13:18:56;22.20;72.90
43995;DHT22;51687;52.160;5.298;2023-07-29T13:21:23;22.20;73.10
43995;DHT22;51687;52.160;5.298;2023-07-29T13:23:51;22.20;73.40
43995;DHT22;51687;52.160;5.298;2023-07-29T13:26:18;22.30;74.60
43995;DHT22;51687;52.160;5.298;2023-07-29T13:28:45;22.30;73.50
43995;DHT22;51687;52.160;5.298;2023-07-29T13:31:11;22.30;72.10
43995;DHT22;51687;52.160;5.298;2023-07-29T13:33:39;22.30;72.70
43995;DHT22;51687;52.160;5.298;2023-07-29T13:36:06;22.40;72.30
43995;DHT22;51687;52.160;5.298;2023-07-29T13:41:02;22.40;71.80
43995;DHT22;51687;52.160;5.298;2023-07-29T13:43:29;22.50;72.30
43995;DHT22;51687;52.160;5.298;2023-07-29T13:45:55;22.50;71.10
43995;DHT22;51687;52.160;5.298;2023-07-29T13:48:22;22.50;71.00
43995;DHT22;51687;52.160;5.298;2023-07-29T13:50:49;22.50;70.60
43995;DHT22;51687;52.160;5.298;2023-07-29T13:53:17;22.60;70.50
43995;DHT22;51687;52.160;5.298;2023-07-29T13:55:44;22.60;69.70
43995;DHT22;51687;52.160;5.298;2023-07-29T13:58:11;22.60;68.20
43995;DHT22;51687;52.160;5.298;2023-07-29T14:00:38;22.60;68.00
43995;DHT22;51687;52.160;5.298;2023-07-29T14:03:05;22.70;68.50
43995;DHT22;51687;52.160;5.298;2023-07-29T14:05:32;22.70;68.60
43995;DHT22;51687;52.160;5.298;2023-07-29T14:07:58;22.70;68.80
43995;DHT22;51687;52.160;5.298;2023-07-29T14:10:25;22.70;67.70
43995;DHT22;51687;52.160;5.298;2023-07-29T14:12:52;22.70;67.70
43995;DHT22;51687;52.160;5.298;2023-07-29T14:15:20;22.70;67.60
43995;DHT22;51687;52.160;5.298;2023-07-29T14:17:47;22.80;68.00
43995;DHT22;51687;52.160;5.298;2023-07-29T14:20:14;22.80;67.90
43995;DHT22;51687;52.160;5.298;2023-07-29T14:22:41;22.80;67.20
43995;DHT22;51687;52.160;5.298;2023-07-29T14:25:08;22.80;67.20
43995;DHT22;51687;52.160;5.298;2023-07-29T14:27:35;22.80;66.20
43995;DHT22;51687;52.160;5.298;2023-07-29T16:55:04;22.90;66.00
43995;DHT22;51687;52.160;5.298;2023-07-29T16:57:31;23.30;64.20
43995;DHT22;51687;52.160;5.298;2023-07-29T16:59:58;23.30;64.30
43995;DHT22;51687;52.160;5.298;2023-07-29T17:02:25;23.30;63.10
43995;DHT22;51687;52.160;5.298;2023-07-29T17:04:52;23.20;62.90
43995;DHT22;51687;52.160;5.298;2023-07-29T17:07:18;23.30;63.40
43995;DHT22;51687;52.160;5.298;2023-07-29T17:09:45;23.30;63.50
43995;DHT22;51687;52.160;5.298;2023-07-29T17:12:13;23.30;63.70
43995;DHT22;51687;52.160;5.298;2023-07-29T17:14:40;23.20;63.50
43995;DHT22;51687;52.160;5.298;2023-07-29T17:17:07;23.30;62.90
43995;DHT22;51687;52.160;5.298;2023-07-29T17:19:35;23.30;63.30
43995;DHT22;51687;52.160;5.298;2023-07-29T17:22:02;23.20;62.90
43995;DHT22;51687;52.160;5.298;2023-07-29T17:24:28;23.20;63.40
43995;DHT22;51687;52.160;5.298;2023-07-29T17:26:55;23.20;63.00
43995;DHT22;51687;52.160;5.298;2023-07-29T17:29:22;23.30;63.50
43995;DHT22;51687;52.160;5.298;2023-07-29T17:31:51;23.30;63.20
43995;DHT22;51687;52.160;5.298;2023-07-29T17:34:18;23.20;62.80
43995;DHT22;51687;52.160;5.298;2023-07-29T17:36:45;23.30;62.80
43995;DHT22;51687;52.160;5.298;2023-07-29T17:39:11;23.20;62.40
43995;DHT22;51687;52.160;5.298;2023-07-29T17:41:38;23.20;62.80
43995;DHT22;51687;52.160;5.298;2023-07-29T17:44:05;23.30;62.60
43995;DHT22;51687;52.160;5.298;2023-07-29T17:46:32;23.20;63.10
43995;DHT22;51687;52.160;5.298;2023-07-29T17:49:00;23.30;62.10
43995;DHT22;51687;52.160;5.298;2023-07-29T17:51:27;23.20;61.00
43995;DHT22;51687;52.160;5.298;2023-07-29T17:53:54;23.20;59.70
43995;DHT22;51687;52.160;5.298;2023-07-29T17:56:21;23.20;59.30
43995;DHT22;51687;52.160;5.298;2023-07-29T17:58:48;23.20;58.70
43995;DHT22;51687;52.160;5.298;2023-07-29T18:01:14;23.20;58.60
43995;DHT22;51687;52.160;5.298;2023-07-29T18:03:41;23.20;58.60
43995;DHT22;51687;52.160;5.298;2023-07-29T18:06:15;23.20;57.80
43995;DHT22;51687;52.160;5.298;2023-07-29T18:08:42;23.20;57.20
43995;DHT22;51687;52.160;5.298;2023-07-29T18:11:09;23.10;56.90
43995;DHT22;51687;52.160;5.298;2023-07-29T18:13:38;23.10;57.60
43995;DHT22;51687;52.160;5.298;2023-07-29T19:27:27;23.10;57.30
43995;DHT22;51687;52.160;5.298;2023-07-29T19:29:54;22.90;55.30
43995;DHT22;51687;52.160;5.298;2023-07-29T19:32:20;22.90;55.30
43995;DHT22;51687;52.160;5.298;2023-07-29T19:34:55;22.80;55.60
43995;DHT22;51687;52.160;5.298;2023-07-29T19:37:23;22.80;55.90
43995;DHT22;51687;52.160;5.298;2023-07-29T19:39:52;22.80;55.80
43995;DHT22;51687;52.160;5.298;2023-07-29T19:42:18;22.80;55.80
43995;DHT22;51687;52.160;5.298;2023-07-29T19:44:47;22.80;55.70
43995;DHT22;51687;52.160;5.298;2023-07-29T19:47:14;22.80;55.80
43995;DHT22;51687;52.160;5.298;2023-07-29T19:49:41;22.70;55.60
43995;DHT22;51687;52.160;5.298;2023-07-29T19:52:08;22.70;55.50
43995;DHT22;51687;52.160;5.298;2023-07-29T19:54:34;22.70;55.40
43995;DHT22;51687;52.160;5.298;2023-07-29T19:57:01;22.70;56.40
43995;DHT22;51687;52.160;5.298;2023-07-29T19:59:28;22.70;56.20
43995;DHT22;51687;52.160;5.298;2023-07-29T20:02:12;22.70;56.40
43995;DHT22;51687;52.160;5.298;2023-07-29T20:04:39;22.70;56.10
43995;DHT22;51687;52.160;5.298;2023-07-29T20:07:06;22.60;56.30
43995;DHT22;51687;52.160;5.298;2023-07-29T20:09:32;22.60;56.70
43995;DHT22;51687;52.160;5.298;2023-07-29T20:11:59;22.50;56.20
43995;DHT22;51687;52.160;5.298;2023-07-29T20:14:26;22.50;56.40
43995;DHT22;51687;52.160;5.298;2023-07-29T20:16:52;22.50;56.20